createdAt,value
2023-05-03T00:00:12.925Z,6.75
2023-05-03T00:02:44.838Z,6.70
2023-05-03T00:05:15.139Z,8.27
2023-05-03T00:07:44.960Z,6.75
2023-05-03T00:10:16.055Z,6.00
2023-05-03T00:12:45.682Z,6.65
2023-05-03T00:15:15.237Z,6.13
2023-05-03T00:17:43.324Z,6.90
2023-05-03T00:20:13.377Z,5.80
2023-05-03T00:22:41.697Z,6.57
2023-05-03T00:25:11.009Z,6.55
2023-05-03T00:27:39.510Z,6.25
2023-05-03T00:30:09.505Z,6.80
2023-05-03T00:32:39.611Z,6.70
2023-05-03T00:35:08.593Z,6.40
2023-05-03T00:37:38.172Z,6.18
2023-05-03T00:40:07.449Z,6.15
2023-05-03T00:42:37.190Z,6.57
2023-05-03T00:45:06.667Z,6.43
2023-05-03T00:47:35.318Z,6.78
2023-05-03T00:50:05.953Z,6.50
2023-05-03T00:52:35.748Z,7.32
2023-05-03T00:55:04.009Z,6.22
2023-05-03T00:57:32.635Z,7.55
2023-05-03T01:00:01.534Z,6.40
2023-05-03T01:02:30.812Z,6.97
2023-05-03T01:04:58.980Z,6.88
2023-05-03T01:07:42.526Z,6.45
2023-05-03T01:10:22.816Z,6.55
2023-05-03T01:12:57.034Z,7.40
2023-05-03T01:15:40.597Z,7.22
2023-05-03T01:18:13.526Z,6.53
2023-05-03T01:20:46.252Z,6.78
2023-05-03T01:23:24.699Z,7.20
2023-05-03T01:25:54.760Z,8.02
2023-05-03T01:28:22.706Z,6.95
2023-05-03T01:30:53.523Z,6.70
2023-05-03T01:33:29.783Z,6.93
2023-05-03T01:36:03.553Z,6.70
2023-05-03T01:38:34.732Z,6.50
2023-05-03T01:41:07.785Z,6.57
2023-05-03T01:46:04.478Z,6.90
2023-05-03T01:48:32.682Z,7.32
2023-05-03T01:51:00.830Z,7.25
2023-05-03T01:53:30.394Z,6.82
2023-05-03T01:55:58.762Z,7.57
2023-05-03T01:58:28.301Z,7.07
2023-05-03T02:00:56.569Z,7.28
2023-05-03T02:03:24.543Z,6.95
2023-05-03T02:05:52.566Z,7.28
2023-05-03T02:08:20.499Z,7.28
2023-05-03T02:10:48.651Z,6.68
2023-05-03T02:13:16.657Z,7.80
2023-05-03T02:15:46.612Z,7.43
2023-05-03T02:18:16.636Z,8.60
2023-05-03T02:20:46.823Z,7.72
2023-05-03T02:23:15.855Z,6.75
2023-05-03T02:25:44.858Z,8.35
2023-05-03T02:28:12.878Z,7.80
2023-05-03T02:30:41.137Z,7.43
2023-05-03T02:33:11.506Z,7.47
2023-05-03T02:35:39.866Z,7.25
2023-05-03T02:38:08.025Z,7.38
2023-05-03T02:40:36.088Z,8.43
2023-05-03T02:43:04.541Z,7.28
2023-05-03T02:45:32.486Z,7.68
2023-05-03T02:48:00.451Z,8.40
2023-05-03T02:50:30.351Z,7.13
2023-05-03T02:52:58.515Z,7.20
2023-05-03T02:55:26.789Z,8.02
2023-05-03T02:57:54.902Z,7.43
2023-05-03T03:00:23.798Z,8.10
2023-05-03T03:02:52.643Z,7.72
2023-05-03T03:05:21.292Z,8.20
2023-05-03T03:07:51.593Z,7.43
2023-05-03T03:10:22.011Z,7.82
2023-05-03T03:12:50.060Z,7.32
2023-05-03T03:15:19.084Z,7.53
2023-05-03T03:17:47.398Z,7.43
2023-05-03T03:20:15.947Z,8.23
2023-05-03T03:22:45.768Z,8.02
2023-05-03T03:25:16.031Z,7.20
2023-05-03T03:27:44.290Z,7.80
2023-05-03T03:30:13.257Z,8.02
2023-05-03T03:32:41.513Z,8.05
2023-05-03T03:35:12.414Z,7.70
2023-05-03T03:37:40.901Z,7.28
2023-05-03T03:40:10.712Z,6.95
2023-05-03T03:42:41.270Z,7.80
2023-05-03T03:45:11.607Z,8.07
2023-05-03T03:47:39.673Z,8.35
2023-05-03T03:50:08.598Z,7.50
2023-05-03T03:52:36.942Z,7.95
2023-05-03T03:55:06.353Z,7.07
2023-05-03T03:57:35.195Z,8.05
2023-05-03T04:00:11.879Z,7.90
2023-05-03T04:02:40.218Z,8.10
2023-05-03T04:05:09.737Z,8.23
2023-05-03T04:07:38.351Z,8.07
2023-05-03T04:10:07.528Z,8.73
2023-05-03T04:12:37.075Z,8.63
2023-05-03T04:15:08.088Z,8.35
2023-05-03T04:17:36.380Z,8.10
2023-05-03T04:20:06.803Z,7.63
2023-05-03T04:22:36.769Z,8.70
2023-05-03T04:25:05.813Z,8.98
2023-05-03T04:27:34.333Z,8.10
2023-05-03T04:30:02.786Z,8.90
2023-05-03T04:32:37.793Z,8.77
2023-05-03T04:35:09.578Z,8.40
2023-05-03T04:37:38.046Z,9.15
2023-05-03T04:40:09.688Z,8.13
2023-05-03T04:42:37.980Z,8.40
2023-05-03T04:45:09.882Z,7.97
2023-05-03T04:47:40.330Z,8.52
2023-05-03T04:50:11.344Z,8.52
2023-05-03T04:52:39.994Z,8.88
2023-05-03T04:55:08.854Z,8.20
2023-05-03T04:57:37.214Z,9.35
2023-05-03T05:00:10.865Z,8.23
2023-05-03T05:02:41.167Z,8.30
2023-05-03T05:05:10.609Z,8.45
2023-05-03T05:07:38.907Z,8.18
2023-05-03T05:10:08.295Z,9.23
2023-05-03T05:12:37.206Z,9.40
2023-05-03T05:15:05.948Z,7.63
2023-05-03T05:17:34.045Z,8.80
2023-05-03T05:20:07.634Z,8.18
2023-05-03T05:22:38.218Z,8.70
2023-05-03T05:25:07.702Z,8.77
2023-05-03T05:27:36.392Z,8.48
2023-05-03T05:30:05.634Z,9.88
2023-05-03T05:32:34.390Z,10.38
2023-05-03T05:35:06.027Z,8.60
2023-05-03T05:37:34.390Z,9.00
2023-05-03T05:40:02.910Z,8.27
2023-05-03T05:42:31.203Z,8.82
2023-05-03T05:44:59.505Z,8.85
2023-05-03T05:47:28.080Z,9.05
2023-05-03T05:49:56.677Z,9.27
2023-05-03T05:52:26.548Z,8.63
2023-05-03T05:54:55.391Z,8.00
2023-05-03T05:57:23.674Z,8.43
2023-05-03T05:59:54.211Z,7.88
2023-05-03T06:02:25.048Z,8.98
2023-05-03T06:04:53.535Z,7.32
2023-05-03T06:07:21.793Z,7.35
2023-05-03T06:09:53.086Z,8.20
2023-05-03T06:12:21.460Z,8.20
2023-05-03T06:15:01.309Z,8.48
2023-05-03T06:17:31.089Z,7.95
2023-05-03T06:19:59.690Z,8.55
2023-05-03T06:22:28.050Z,8.85
2023-05-03T06:24:58.205Z,8.50
2023-05-03T06:27:26.504Z,8.43
2023-05-03T06:29:54.760Z,8.10
2023-05-03T06:32:23.824Z,9.02
2023-05-03T06:34:53.114Z,8.20
2023-05-03T06:37:21.161Z,9.05
2023-05-03T06:39:50.503Z,8.93
2023-05-03T06:42:21.431Z,8.48
2023-05-03T06:44:49.470Z,8.73
2023-05-03T06:47:17.309Z,8.52
2023-05-03T06:49:45.424Z,8.73
2023-05-03T06:52:13.847Z,8.48
2023-05-03T06:54:42.240Z,8.00
2023-05-03T06:57:11.281Z,9.18
2023-05-03T06:59:41.257Z,8.27
2023-05-03T07:02:09.631Z,8.05
2023-05-03T07:04:38.113Z,8.05
2023-05-03T07:07:06.857Z,8.65
2023-05-03T07:09:42.708Z,8.38
2023-05-03T07:12:12.867Z,8.55
2023-05-03T07:14:42.668Z,7.95
2023-05-03T07:17:11.643Z,7.35
2023-05-03T07:19:40.041Z,7.82
2023-05-03T07:22:08.758Z,7.75
2023-05-03T07:24:37.375Z,8.60
2023-05-03T07:27:06.668Z,8.50
2023-05-03T07:29:36.578Z,8.10
2023-05-03T07:32:07.590Z,8.32
2023-05-03T07:34:35.535Z,8.15
2023-05-03T07:37:03.964Z,7.45
2023-05-03T07:39:32.285Z,7.20
2023-05-03T07:42:00.392Z,6.95
2023-05-03T07:44:29.007Z,8.68
2023-05-03T07:46:57.638Z,7.05
2023-05-03T07:49:27.409Z,7.85
2023-05-03T07:51:57.893Z,7.63
2023-05-03T07:54:33.528Z,8.05
2023-05-03T07:57:03.720Z,7.28
2023-05-03T07:59:31.938Z,7.28
2023-05-03T08:02:01.655Z,8.00
2023-05-03T08:04:31.839Z,7.55
2023-05-03T08:07:02.381Z,7.38
2023-05-03T08:09:31.488Z,8.95
2023-05-03T08:11:59.682Z,7.18
2023-05-03T08:14:27.936Z,7.38
2023-05-03T08:16:56.486Z,7.47
2023-05-03T08:19:26.517Z,7.20
2023-05-03T08:21:56.078Z,6.90
2023-05-03T08:24:24.776Z,7.30
2023-05-03T08:26:52.890Z,7.40
2023-05-03T08:29:21.180Z,8.13
2023-05-03T08:31:49.400Z,7.88
2023-05-03T08:34:17.790Z,7.97
2023-05-03T08:36:46.209Z,8.07
2023-05-03T08:39:15.744Z,7.57
2023-05-03T08:41:44.409Z,7.55
2023-05-03T08:44:14.339Z,8.02
2023-05-03T08:46:46.017Z,7.40
2023-05-03T08:49:15.028Z,7.25
2023-05-03T08:51:47.270Z,7.53
2023-05-03T08:54:20.687Z,8.63
2023-05-03T08:56:48.823Z,7.88
2023-05-03T08:59:17.887Z,8.05
2023-05-03T09:01:46.117Z,7.70
2023-05-03T09:04:15.237Z,7.75
2023-05-03T09:06:43.494Z,8.15
2023-05-03T09:09:11.595Z,7.78
2023-05-03T09:11:41.454Z,7.82
2023-05-03T09:14:11.373Z,7.82
2023-05-03T09:16:41.046Z,7.22
2023-05-03T09:19:12.446Z,7.40
2023-05-03T09:21:41.303Z,8.18
2023-05-03T09:24:18.904Z,8.77
2023-05-03T09:26:50.971Z,8.05
2023-05-03T09:29:30.607Z,8.07
2023-05-03T09:32:05.501Z,7.95
2023-05-03T09:34:34.516Z,8.30
2023-05-03T09:37:03.157Z,8.20
2023-05-03T09:39:32.387Z,8.55
2023-05-03T09:42:12.393Z,7.53
2023-05-03T09:44:45.554Z,7.68
2023-05-03T09:47:13.573Z,8.88
2023-05-03T09:49:42.181Z,8.45
2023-05-03T09:52:11.362Z,8.75
2023-05-03T09:54:40.035Z,8.43
2023-05-03T09:57:13.075Z,7.88
2023-05-03T09:59:42.186Z,8.38
2023-05-03T10:02:10.956Z,8.45
2023-05-03T10:04:45.687Z,8.25
2023-05-03T10:07:18.310Z,7.43
2023-05-03T10:09:47.895Z,7.85
2023-05-03T10:12:18.020Z,7.68
2023-05-03T10:14:48.212Z,8.15
2023-05-03T10:17:22.310Z,7.53
2023-05-03T10:19:56.642Z,7.10
2023-05-03T10:22:24.758Z,7.22
2023-05-03T10:25:13.108Z,7.63
2023-05-03T10:27:54.614Z,7.45
2023-05-03T10:30:31.215Z,7.07
2023-05-03T10:32:59.728Z,7.50
2023-05-03T10:35:29.249Z,7.38
2023-05-03T10:38:01.103Z,7.47
2023-05-03T10:40:44.308Z,7.30
2023-05-03T10:45:58.176Z,6.72
2023-05-03T10:48:28.631Z,6.55
2023-05-03T10:50:58.194Z,7.20
2023-05-03T10:53:41.208Z,6.82
2023-05-03T10:56:10.784Z,6.88
2023-05-03T10:58:43.499Z,6.00
2023-05-03T11:01:15.219Z,6.20
2023-05-03T11:03:53.466Z,6.47
2023-05-03T11:06:36.284Z,6.80
2023-05-03T11:09:07.042Z,6.45
2023-05-03T11:11:37.023Z,7.13
2023-05-03T11:14:05.594Z,6.68
2023-05-03T11:16:36.471Z,6.40
2023-05-03T11:19:04.816Z,7.03
2023-05-03T11:21:34.815Z,5.75
2023-05-03T11:24:03.569Z,6.38
2023-05-03T11:26:37.381Z,6.30
2023-05-03T11:29:06.849Z,6.07
2023-05-03T11:31:37.643Z,6.97
2023-05-03T11:34:07.670Z,6.30
2023-05-03T11:36:36.315Z,6.82
2023-05-03T11:39:06.659Z,6.30
2023-05-03T11:41:34.544Z,5.85
2023-05-03T11:44:15.394Z,5.72
2023-05-03T11:46:49.044Z,5.82
2023-05-03T11:49:20.019Z,5.82
2023-05-03T11:51:52.597Z,5.88
2023-05-03T11:54:26.805Z,5.30
2023-05-03T11:56:58.292Z,6.05
2023-05-03T11:59:37.208Z,5.22
2023-05-03T12:02:08.165Z,6.05
2023-05-03T12:04:41.671Z,4.65
2023-05-03T12:07:11.891Z,5.72
2023-05-03T12:09:43.918Z,5.47
2023-05-03T12:12:25.185Z,5.07
2023-05-03T12:15:00.638Z,5.80
2023-05-03T12:17:44.135Z,5.20
2023-05-03T12:22:51.861Z,4.57
2023-05-03T12:25:21.713Z,5.07
2023-05-03T12:28:18.058Z,5.00
2023-05-03T12:30:46.491Z,6.13
2023-05-03T12:33:21.695Z,5.75
2023-05-03T12:35:53.457Z,5.72
2023-05-03T12:38:24.215Z,5.35
2023-05-03T12:40:55.266Z,5.00
2023-05-03T12:43:27.015Z,5.00
2023-05-03T12:46:25.131Z,4.80
2023-05-03T12:48:46.684Z,4.90
2023-05-03T12:51:20.237Z,4.82
2023-05-03T12:53:55.222Z,4.10
2023-05-03T12:56:25.295Z,5.43
2023-05-03T12:59:07.495Z,5.00
2023-05-03T13:04:36.354Z,4.22
2023-05-03T13:09:38.869Z,5.18
2023-05-03T13:12:23.659Z,4.55
2023-05-03T13:14:53.401Z,4.32
2023-05-03T13:17:23.397Z,4.45
2023-05-03T13:19:54.274Z,4.60
2023-05-03T13:22:26.142Z,5.05
2023-05-03T13:24:54.847Z,5.15
2023-05-03T13:27:23.022Z,4.90
2023-05-03T13:29:51.698Z,4.88
2023-05-03T13:32:20.415Z,4.78
2023-05-03T13:34:48.979Z,4.80
2023-05-03T13:37:19.943Z,3.97
2023-05-03T13:39:48.711Z,5.18
2023-05-03T13:42:17.080Z,4.70
2023-05-03T13:44:47.128Z,4.57
2023-05-03T13:47:17.395Z,5.18
2023-05-03T13:49:45.388Z,4.95
2023-05-03T13:52:14.017Z,4.60
2023-05-03T13:54:43.895Z,4.15
2023-05-03T13:57:11.867Z,4.60
2023-05-03T13:59:41.205Z,4.20
2023-05-03T14:02:10.462Z,4.10
2023-05-03T14:04:39.029Z,4.13
2023-05-03T14:07:07.111Z,3.75
2023-05-03T14:09:39.395Z,5.25
2023-05-03T14:14:38.077Z,4.38
2023-05-03T14:17:06.738Z,4.28
2023-05-03T14:19:36.790Z,4.10
2023-05-03T14:22:05.129Z,4.00
2023-05-03T14:24:33.324Z,3.63
2023-05-03T14:27:02.038Z,3.25
2023-05-03T14:29:31.608Z,4.10
2023-05-03T14:32:00.847Z,4.05
2023-05-03T14:34:29.062Z,3.83
2023-05-03T14:36:57.038Z,3.78
2023-05-03T14:39:26.445Z,3.67
2023-05-03T14:41:56.383Z,4.13
2023-05-03T14:44:25.165Z,3.95
2023-05-03T14:46:59.398Z,4.10
2023-05-03T14:49:27.968Z,3.42
2023-05-03T14:51:57.676Z,4.00
2023-05-03T14:54:25.725Z,4.40
2023-05-03T14:56:54.392Z,3.55
2023-05-03T14:59:22.800Z,3.45
2023-05-03T15:01:54.824Z,3.78
2023-05-03T15:04:23.799Z,3.78
2023-05-03T15:06:51.951Z,3.45
2023-05-03T15:09:21.054Z,3.20
2023-05-03T15:11:49.816Z,2.90
2023-05-03T15:14:19.538Z,3.20
2023-05-03T15:16:50.652Z,3.05
2023-05-03T15:19:21.235Z,3.03
2023-05-03T15:21:51.368Z,3.60
2023-05-03T15:24:19.995Z,2.95
2023-05-03T15:26:51.865Z,3.50
2023-05-03T15:29:20.149Z,3.10
2023-05-03T15:31:50.862Z,3.20
2023-05-03T15:34:21.285Z,3.83
2023-05-03T15:36:49.965Z,3.17
2023-05-03T15:39:17.919Z,3.13
2023-05-03T15:41:46.611Z,3.38
2023-05-03T15:44:16.195Z,3.65
2023-05-03T15:46:44.322Z,3.00
2023-05-03T15:49:13.277Z,2.80
2023-05-03T15:51:43.199Z,2.90
2023-05-03T15:54:13.661Z,3.10
2023-05-03T15:56:42.267Z,2.50
2023-05-03T15:59:14.792Z,3.15
2023-05-03T16:01:43.081Z,3.10
2023-05-03T16:04:11.380Z,3.22
2023-05-03T16:06:39.769Z,2.60
2023-05-03T16:09:11.021Z,2.75
2023-05-03T16:11:39.137Z,2.40
2023-05-03T16:14:09.582Z,2.83
2023-05-03T16:16:39.031Z,2.63
2023-05-03T16:19:08.841Z,3.35
2023-05-03T16:21:37.060Z,3.28
2023-05-03T16:24:06.309Z,3.00
2023-05-03T16:26:36.611Z,2.53
2023-05-03T16:29:05.705Z,2.92
2023-05-03T16:31:35.122Z,3.30
2023-05-03T16:34:03.753Z,3.22
2023-05-03T16:36:33.155Z,3.00
2023-05-03T16:39:01.214Z,2.45
2023-05-03T16:41:29.205Z,2.78
2023-05-03T16:43:58.746Z,2.95
2023-05-03T16:46:27.062Z,3.10
2023-05-03T16:48:55.338Z,2.67
2023-05-03T16:51:23.377Z,2.67
2023-05-03T16:53:53.412Z,2.78
2023-05-03T16:56:21.778Z,3.10
2023-05-03T16:58:50.072Z,2.55
2023-05-03T17:01:21.740Z,2.53
2023-05-03T17:03:50.190Z,3.00
2023-05-03T17:06:19.727Z,2.35
2023-05-03T17:08:47.794Z,2.72
2023-05-03T17:11:16.362Z,2.88
2023-05-03T17:13:45.065Z,2.20
2023-05-03T17:16:15.480Z,2.65
2023-05-03T17:18:47.439Z,2.35
2023-05-03T17:21:15.888Z,2.00
2023-05-03T17:23:44.438Z,2.35
2023-05-03T17:26:14.226Z,1.83
2023-05-03T17:28:44.027Z,2.35
2023-05-03T17:31:12.638Z,1.85
2023-05-03T17:33:41.585Z,2.20
2023-05-03T17:36:11.346Z,1.90
2023-05-03T17:38:39.612Z,1.88
2023-05-03T17:41:08.729Z,2.13
2023-05-03T17:43:38.577Z,2.00
2023-05-03T17:46:11.340Z,2.28
2023-05-03T17:48:42.667Z,2.90
2023-05-03T17:51:13.671Z,2.55
2023-05-03T17:53:42.906Z,3.05
2023-05-03T17:56:15.553Z,2.22
2023-05-03T17:58:43.875Z,2.67
2023-05-03T18:01:13.449Z,2.50
2023-05-03T18:03:42.865Z,1.98
2023-05-03T18:06:14.478Z,2.08
2023-05-03T18:08:43.980Z,2.40
2023-05-03T18:11:12.339Z,1.92
2023-05-03T18:13:41.241Z,2.35
2023-05-03T18:16:09.902Z,2.47
2023-05-03T18:18:37.997Z,2.50
2023-05-03T18:21:06.766Z,2.17
2023-05-03T18:23:36.420Z,2.22
2023-05-03T18:26:05.275Z,2.25
2023-05-03T18:28:33.664Z,2.15
2023-05-03T18:31:01.633Z,2.20
2023-05-03T18:33:29.868Z,2.58
2023-05-03T18:35:57.907Z,3.22
2023-05-03T18:38:25.852Z,2.67
2023-05-03T18:40:55.964Z,2.60
2023-05-03T18:43:24.213Z,2.50
2023-05-03T18:45:53.013Z,3.08
2023-05-03T18:48:20.939Z,2.35
2023-05-03T18:50:49.253Z,3.22
2023-05-03T18:53:17.614Z,2.70
2023-05-03T18:55:45.926Z,2.20
2023-05-03T18:58:15.847Z,2.42
2023-05-03T19:00:44.154Z,1.75
2023-05-03T19:03:12.417Z,2.30
2023-05-03T19:05:40.544Z,2.15
2023-05-03T19:08:08.648Z,2.45
2023-05-03T19:10:36.907Z,2.70
2023-05-03T19:13:05.081Z,2.47
2023-05-03T19:15:35.957Z,2.60
2023-05-03T19:18:04.191Z,2.45
2023-05-03T19:20:33.310Z,2.08
2023-05-03T19:23:03.908Z,2.20
2023-05-03T19:25:32.455Z,2.30
2023-05-03T19:28:01.152Z,2.00
2023-05-03T19:30:29.549Z,2.30
2023-05-03T19:33:00.157Z,2.08
2023-05-03T19:35:28.134Z,2.33
2023-05-03T19:37:56.189Z,2.30
2023-05-03T19:40:24.741Z,2.60
2023-05-03T19:42:54.015Z,2.28
2023-05-03T19:45:23.309Z,2.40
2023-05-03T19:47:53.248Z,2.55
2023-05-03T19:50:22.891Z,2.30
2023-05-03T19:52:54.154Z,2.97
2023-05-03T19:55:23.243Z,2.35
2023-05-03T19:57:54.674Z,2.80
2023-05-03T20:00:26.938Z,3.13
2023-05-03T20:02:55.522Z,2.87
2023-05-03T20:05:25.210Z,2.42
2023-05-03T20:07:53.754Z,2.63
2023-05-03T20:10:22.092Z,2.45
2023-05-03T20:12:50.423Z,2.25
2023-05-03T20:15:18.995Z,2.10
2023-05-03T20:17:47.296Z,2.00
2023-05-03T20:20:16.388Z,2.90
2023-05-03T20:22:45.896Z,2.58
2023-05-03T20:25:15.021Z,2.80
2023-05-03T20:27:42.943Z,3.03
2023-05-03T20:30:11.815Z,3.10
2023-05-03T20:32:40.577Z,3.80
2023-05-03T20:35:10.952Z,4.40
2023-05-03T20:37:39.926Z,4.00
2023-05-03T20:40:11.947Z,4.00
2023-05-03T20:42:40.123Z,3.75
2023-05-03T20:45:09.256Z,3.72
2023-05-03T20:47:38.117Z,3.50
2023-05-03T20:50:09.966Z,3.20
2023-05-03T20:52:38.321Z,3.88
2023-05-03T20:55:07.411Z,3.15
2023-05-03T20:57:41.212Z,3.58
2023-05-03T21:00:12.557Z,3.72
2023-05-03T21:02:40.625Z,4.15
2023-05-03T21:05:09.732Z,3.17
2023-05-03T21:07:38.355Z,3.33
2023-05-03T21:10:07.776Z,3.17
2023-05-03T21:12:38.093Z,3.35
2023-05-03T21:15:07.438Z,3.13
2023-05-03T21:17:36.170Z,3.50
2023-05-03T21:20:06.302Z,3.17
2023-05-03T21:22:34.668Z,3.30
2023-05-03T21:25:04.218Z,3.67
2023-05-03T21:27:32.740Z,3.22
2023-05-03T21:30:02.824Z,3.30
2023-05-03T21:32:31.344Z,3.38
2023-05-03T21:34:59.574Z,3.67
2023-05-03T21:37:27.654Z,3.42
2023-05-03T21:40:01.949Z,3.78
2023-05-03T21:42:30.760Z,3.45
2023-05-03T21:44:59.373Z,3.90
2023-05-03T21:47:29.600Z,3.42
2023-05-03T21:49:57.597Z,3.70
2023-05-03T21:52:26.010Z,4.00
2023-05-03T21:54:54.586Z,3.92
2023-05-03T21:57:22.832Z,3.63
2023-05-03T21:59:51.330Z,3.75
2023-05-03T22:02:19.780Z,3.85
2023-05-03T22:04:50.184Z,3.67
2023-05-03T22:07:18.872Z,3.72
2023-05-03T22:09:49.544Z,4.18
2023-05-03T22:12:23.922Z,4.25
2023-05-03T22:14:53.151Z,4.75
2023-05-03T22:17:21.579Z,3.70
2023-05-03T22:19:51.373Z,3.67
2023-05-03T22:22:19.711Z,5.03
2023-05-03T22:24:47.975Z,3.20
2023-05-03T22:27:16.108Z,3.55
2023-05-03T22:29:44.241Z,4.13
2023-05-03T22:32:12.818Z,3.78
2023-05-03T22:34:41.122Z,3.63
2023-05-03T22:37:11.324Z,4.63
2023-05-03T22:39:39.617Z,4.40
2023-05-03T22:42:07.787Z,4.68
2023-05-03T22:44:36.263Z,4.30
2023-05-03T22:47:04.363Z,4.40
2023-05-03T22:49:32.595Z,4.10
2023-05-03T22:52:01.866Z,4.13
2023-05-03T22:54:31.374Z,4.50
2023-05-03T22:56:59.802Z,4.85
2023-05-03T22:59:28.342Z,5.22
2023-05-03T23:01:57.365Z,4.40
2023-05-03T23:04:26.013Z,4.22
2023-05-03T23:06:55.355Z,4.22
2023-05-03T23:09:24.146Z,5.38
2023-05-03T23:11:55.102Z,4.70
2023-05-03T23:14:23.760Z,4.65
2023-05-03T23:16:52.076Z,5.07
2023-05-03T23:19:20.396Z,4.40
2023-05-03T23:21:49.295Z,4.50
2023-05-03T23:24:17.595Z,3.97
2023-05-03T23:26:46.157Z,4.18
2023-05-03T23:29:16.777Z,3.75
2023-05-03T23:31:47.266Z,3.75
2023-05-03T23:34:16.302Z,4.75
2023-05-03T23:36:44.541Z,3.97
2023-05-03T23:39:12.682Z,4.55
2023-05-03T23:41:41.035Z,3.90
2023-05-03T23:44:09.401Z,4.35
2023-05-03T23:46:42.713Z,4.53
2023-05-03T23:49:12.545Z,4.32
2023-05-03T23:51:40.967Z,4.50
2023-05-03T23:54:09.474Z,4.45
2023-05-03T23:56:38.265Z,4.60
2023-05-03T23:59:07.209Z,3.90
